createdAt,value
2018-02-21T00:00:35.636Z,24.63
2018-02-21T00:03:03.192Z,23.13
2018-02-21T00:05:30.736Z,23.60
2018-02-21T00:07:58.490Z,23.33
2018-02-21T00:10:26.075Z,22.87
2018-02-21T00:12:53.603Z,23.10
2018-02-21T00:15:21.127Z,22.60
2018-02-21T00:17:48.667Z,22.40
2018-02-21T00:20:17.073Z,23.47
2018-02-21T00:22:44.626Z,23.57
2018-02-21T00:25:12.180Z,22.33
2018-02-21T00:27:39.712Z,22.77
2018-02-21T00:30:07.256Z,23.30
2018-02-21T00:32:34.797Z,24.53
2018-02-21T00:35:02.344Z,23.90
2018-02-21T00:37:29.884Z,22.07
2018-02-21T00:39:57.392Z,23.20
2018-02-21T00:42:24.936Z,22.87
2018-02-21T00:44:52.458Z,22.63
2018-02-21T00:47:19.977Z,22.57
2018-02-21T00:49:47.523Z,23.57
2018-02-21T00:52:15.090Z,22.57
2018-02-21T00:54:42.592Z,22.33
2018-02-21T00:57:10.130Z,21.87
2018-02-21T00:59:37.669Z,22.90
2018-02-21T01:02:05.208Z,23.63
2018-02-21T01:04:32.733Z,23.93
2018-02-21T01:07:00.278Z,22.20
2018-02-21T01:09:27.821Z,22.97
2018-02-21T01:11:55.340Z,23.63
2018-02-21T01:14:22.886Z,22.60
2018-02-21T01:16:50.400Z,24.00
2018-02-21T01:19:17.946Z,21.80
2018-02-21T01:21:45.493Z,20.93
2018-02-21T01:24:13.011Z,22.37
2018-02-21T01:26:40.563Z,22.80
2018-02-21T01:29:08.077Z,21.67
2018-02-21T01:31:35.889Z,21.43
2018-02-21T01:34:03.451Z,22.90
2018-02-21T01:36:30.980Z,21.53
2018-02-21T01:38:58.528Z,22.10
2018-02-21T01:41:26.088Z,21.27
2018-02-21T01:43:53.697Z,22.50
2018-02-21T01:46:21.234Z,22.67
2018-02-21T01:48:48.789Z,22.80
2018-02-21T01:51:16.309Z,23.20
2018-02-21T01:53:43.832Z,22.63
2018-02-21T01:56:11.403Z,22.00
2018-02-21T01:58:38.923Z,23.67
2018-02-21T02:01:06.453Z,22.30
2018-02-21T02:03:33.982Z,22.47
2018-02-21T02:06:01.534Z,23.50
2018-02-21T02:08:29.115Z,22.10
2018-02-21T02:10:56.679Z,23.67
2018-02-21T02:13:24.204Z,23.07
2018-02-21T02:15:51.759Z,22.03
2018-02-21T02:18:19.283Z,23.63
2018-02-21T02:20:46.805Z,23.57
2018-02-21T02:23:14.354Z,22.90
2018-02-21T02:25:41.865Z,23.60
2018-02-21T02:28:09.429Z,22.17
2018-02-21T02:30:36.963Z,24.17
2018-02-21T02:33:04.510Z,22.07
2018-02-21T02:35:32.012Z,22.80
2018-02-21T02:37:59.842Z,23.00
2018-02-21T02:40:27.410Z,24.17
2018-02-21T02:42:54.958Z,24.23
2018-02-21T02:45:22.537Z,22.33
2018-02-21T02:47:50.070Z,23.60
2018-02-21T02:50:17.605Z,23.30
2018-02-21T02:52:45.139Z,22.20
2018-02-21T02:55:12.666Z,22.60
2018-02-21T02:57:40.216Z,23.60
2018-02-21T03:00:07.738Z,23.40
2018-02-21T03:02:35.539Z,22.80
2018-02-21T03:05:03.302Z,24.67
2018-02-21T03:07:30.842Z,22.57
2018-02-21T03:09:58.377Z,23.30
2018-02-21T03:12:25.924Z,23.50
2018-02-21T03:14:53.764Z,22.93
2018-02-21T03:17:21.376Z,24.07
2018-02-21T03:19:48.878Z,22.17
2018-02-21T03:22:16.389Z,23.00
2018-02-21T03:24:43.986Z,23.90
2018-02-21T03:27:11.514Z,24.40
2018-02-21T03:29:39.087Z,23.13
2018-02-21T03:32:06.619Z,23.23
2018-02-21T03:34:34.224Z,23.70
2018-02-21T03:37:01.801Z,23.40
2018-02-21T03:39:29.314Z,21.70
2018-02-21T03:41:57.126Z,23.77
2018-02-21T03:44:24.658Z,24.07
2018-02-21T03:46:52.446Z,23.00
2018-02-21T03:49:19.983Z,22.93
2018-02-21T03:51:47.506Z,23.50
2018-02-21T03:54:15.177Z,22.00
2018-02-21T03:56:42.775Z,23.77
2018-02-21T03:59:10.326Z,22.97
2018-02-21T04:01:37.843Z,23.90
2018-02-21T04:04:05.372Z,22.57
2018-02-21T04:06:32.962Z,23.90
2018-02-21T04:09:00.500Z,23.57
2018-02-21T04:11:28.257Z,23.43
2018-02-21T04:13:56.046Z,21.67
2018-02-21T04:16:23.600Z,22.80
2018-02-21T04:18:51.132Z,22.80
2018-02-21T04:21:18.686Z,22.30
2018-02-21T04:23:46.235Z,23.63
2018-02-21T04:26:13.774Z,24.40
2018-02-21T04:28:41.457Z,24.50
2018-02-21T04:31:09.007Z,24.60
2018-02-21T04:33:36.514Z,23.50
2018-02-21T04:36:04.098Z,24.20
2018-02-21T04:38:31.615Z,23.33
2018-02-21T04:40:59.396Z,22.40
2018-02-21T04:43:26.944Z,23.80
2018-02-21T04:45:54.481Z,24.50
2018-02-21T04:48:22.049Z,23.30
2018-02-21T04:50:49.846Z,24.10
2018-02-21T04:53:17.396Z,22.97
2018-02-21T04:58:55.564Z,28.40
2018-02-21T05:01:23.096Z,24.87
2018-02-21T05:03:50.965Z,34.37
2018-02-21T05:06:18.515Z,29.20
2018-02-21T05:08:46.296Z,45.37
2018-02-21T05:11:13.843Z,34.67
2018-02-21T05:13:41.429Z,32.47
2018-02-21T05:16:08.999Z,23.77
2018-02-21T05:18:36.547Z,34.00
2018-02-21T05:21:04.140Z,91.63
2018-02-21T05:23:31.685Z,72.87
2018-02-21T05:25:59.553Z,66.67
2018-02-21T05:28:27.057Z,64.40
2018-02-21T05:30:54.958Z,90.43
2018-02-21T05:33:22.478Z,149.67
2018-02-21T05:35:50.029Z,110.13
2018-02-21T05:38:17.595Z,125.73
2018-02-21T05:40:45.138Z,88.80
2018-02-21T05:43:12.718Z,66.67
2018-02-21T05:45:40.524Z,113.20
2018-02-21T05:48:08.041Z,133.97
2018-02-21T05:50:35.598Z,92.00
2018-02-21T05:53:03.425Z,58.00
2018-02-21T05:55:30.991Z,59.83
2018-02-21T05:57:58.518Z,79.77
2018-02-21T06:00:26.125Z,57.30
2018-02-21T06:02:53.674Z,56.13
2018-02-21T06:05:21.301Z,63.23
2018-02-21T06:07:48.863Z,103.73
2018-02-21T06:10:16.422Z,50.00
2018-02-21T06:12:43.946Z,50.43
2018-02-21T06:15:11.543Z,47.17
2018-02-21T06:17:39.096Z,49.07
2018-02-21T06:20:06.664Z,75.80
2018-02-21T06:22:34.221Z,92.73
2018-02-21T06:25:01.809Z,66.23
2018-02-21T06:27:29.320Z,32.43
2018-02-21T06:29:56.878Z,29.97
2018-02-21T06:32:24.419Z,26.00
2018-02-21T06:34:51.967Z,27.47
2018-02-21T06:37:19.544Z,24.90
2018-02-21T06:39:47.474Z,23.27
2018-02-21T06:42:15.021Z,25.40
2018-02-21T06:44:42.545Z,26.00
2018-02-21T06:47:10.061Z,25.90
2018-02-21T06:49:37.919Z,23.50
2018-02-21T06:52:05.462Z,23.47
2018-02-21T06:54:33.049Z,25.77
2018-02-21T06:57:00.597Z,23.47
2018-02-21T06:59:28.366Z,25.27
2018-02-21T07:01:55.927Z,24.80
2018-02-21T07:04:23.814Z,24.33
2018-02-21T07:06:51.357Z,24.60
2018-02-21T07:09:19.123Z,23.53
2018-02-21T07:11:46.653Z,23.80
2018-02-21T07:14:14.243Z,24.53
2018-02-21T07:16:41.771Z,26.47
2018-02-21T07:19:09.291Z,23.80
2018-02-21T07:21:36.826Z,24.17
2018-02-21T07:24:04.382Z,25.60
2018-02-21T07:26:31.981Z,25.37
2018-02-21T07:28:59.502Z,26.37
2018-02-21T07:31:27.402Z,24.53
2018-02-21T07:33:55.602Z,25.20
2018-02-21T07:36:23.167Z,23.57
2018-02-21T07:38:50.681Z,25.33
2018-02-21T07:41:18.231Z,24.40
2018-02-21T07:43:45.795Z,24.70
2018-02-21T07:46:13.330Z,25.27
2018-02-21T07:48:40.896Z,23.80
2018-02-21T07:51:08.452Z,25.17
2018-02-21T07:53:36.017Z,24.60
2018-02-21T07:56:03.588Z,25.17
2018-02-21T07:58:31.368Z,24.00
2018-02-21T08:00:58.949Z,24.70
2018-02-21T08:03:26.786Z,25.70
2018-02-21T08:05:54.341Z,25.40
2018-02-21T08:08:21.854Z,25.83
2018-02-21T08:10:49.428Z,25.50
2018-02-21T08:13:16.951Z,26.50
2018-02-21T08:15:44.466Z,27.03
2018-02-21T08:18:12.024Z,28.08
2018-02-21T08:20:39.583Z,28.33
2018-02-21T08:23:07.142Z,29.03
2018-02-21T08:25:34.701Z,27.47
2018-02-21T08:28:02.246Z,27.13
2018-02-21T08:30:29.801Z,25.10
2018-02-21T08:32:57.622Z,24.50
2018-02-21T08:35:25.488Z,26.77
2018-02-21T08:37:53.008Z,25.60
2018-02-21T08:40:20.656Z,25.03
2018-02-21T08:42:48.216Z,23.87
2018-02-21T08:45:15.749Z,26.03
2018-02-21T08:47:43.277Z,24.33
2018-02-21T08:50:10.868Z,23.27
2018-02-21T08:52:38.398Z,24.83
2018-02-21T08:55:06.192Z,25.10
2018-02-21T08:57:33.792Z,24.50
2018-02-21T09:00:01.353Z,25.43
2018-02-21T09:02:28.914Z,25.63
2018-02-21T09:04:56.434Z,23.90
2018-02-21T09:07:24.012Z,25.07
2018-02-21T09:09:51.543Z,23.47
2018-02-21T09:12:19.337Z,26.57
2018-02-21T09:14:46.872Z,24.50
2018-02-21T09:17:14.407Z,25.73
2018-02-21T09:19:41.957Z,23.80
2018-02-21T09:22:09.501Z,26.03
2018-02-21T09:24:37.052Z,25.67
2018-02-21T09:27:04.559Z,24.70
2018-02-21T09:29:32.361Z,25.70
2018-02-21T09:31:59.936Z,24.57
2018-02-21T09:34:27.460Z,25.53
2018-02-21T09:36:55.012Z,25.73
2018-02-21T09:39:22.530Z,24.00
2018-02-21T09:41:50.053Z,23.67
2018-02-21T09:44:17.906Z,24.70
2018-02-21T09:46:45.445Z,24.90
2018-02-21T09:49:13.085Z,24.17
2018-02-21T09:51:40.662Z,25.57
2018-02-21T09:54:08.180Z,24.63
2018-02-21T09:56:35.819Z,24.00
2018-02-21T09:59:03.355Z,24.20
2018-02-21T10:01:30.944Z,23.90
2018-02-21T10:03:58.506Z,25.90
2018-02-21T10:06:26.420Z,24.53
2018-02-21T10:08:53.931Z,23.90
2018-02-21T10:11:21.787Z,25.37
2018-02-21T10:13:49.558Z,24.27
2018-02-21T10:16:17.111Z,23.40
2018-02-21T10:18:44.983Z,24.20
2018-02-21T10:21:12.850Z,24.70
2018-02-21T10:23:40.395Z,25.17
2018-02-21T10:26:07.934Z,23.90
2018-02-21T10:28:35.466Z,23.40
2018-02-21T10:31:03.046Z,21.73
2018-02-21T10:33:30.684Z,20.93
2018-02-21T10:35:58.529Z,20.60
2018-02-21T10:38:26.072Z,32.83
2018-02-21T10:40:53.670Z,22.37
2018-02-21T10:43:21.240Z,19.53
2018-02-21T10:45:48.768Z,20.50
2018-02-21T10:48:16.329Z,20.83
2018-02-21T10:50:43.831Z,20.33
2018-02-21T10:53:11.973Z,19.90
2018-02-21T10:55:39.494Z,18.40
2018-02-21T10:58:07.054Z,19.93
2018-02-21T11:00:40.294Z,19.80
2018-02-21T11:03:07.839Z,20.40
2018-02-21T11:05:35.366Z,20.77
2018-02-21T11:08:02.921Z,19.83
2018-02-21T11:10:30.573Z,19.10
2018-02-21T11:12:58.128Z,18.40
2018-02-21T11:15:25.648Z,17.90
2018-02-21T11:17:53.199Z,18.80
2018-02-21T11:20:20.705Z,16.53
2018-02-21T11:22:48.526Z,18.17
2018-02-21T11:25:16.055Z,18.03
2018-02-21T11:27:43.678Z,16.27
2018-02-21T11:30:11.198Z,17.03
2018-02-21T11:32:38.778Z,15.87
2018-02-21T11:35:06.315Z,16.67
2018-02-21T11:37:34.091Z,17.03
2018-02-21T11:40:01.895Z,15.70
2018-02-21T11:42:29.424Z,16.50
2018-02-21T11:44:56.962Z,16.67
2018-02-21T11:47:24.495Z,15.60
2018-02-21T11:49:52.077Z,15.07
2018-02-21T11:52:19.679Z,15.40
2018-02-21T11:54:47.189Z,16.53
2018-02-21T11:57:14.754Z,15.30
2018-02-21T11:59:42.299Z,16.30
2018-02-21T12:02:09.861Z,16.20
2018-02-21T12:04:37.439Z,16.10
2018-02-21T12:07:04.961Z,15.90
2018-02-21T12:09:32.523Z,15.97
2018-02-21T12:12:00.079Z,16.00
2018-02-21T12:14:27.682Z,16.33
2018-02-21T12:16:55.575Z,16.73
2018-02-21T12:19:23.364Z,15.60
2018-02-21T12:21:50.889Z,16.80
2018-02-21T12:24:18.455Z,16.87
2018-02-21T12:26:46.028Z,16.80
2018-02-21T12:29:13.579Z,16.13
2018-02-21T12:31:41.639Z,16.83
2018-02-21T12:34:09.212Z,17.70
2018-02-21T12:36:36.739Z,15.57
2018-02-21T12:39:09.854Z,15.70
2018-02-21T12:41:43.277Z,15.57
2018-02-21T12:44:11.137Z,15.63
2018-02-21T12:46:38.657Z,15.03
2018-02-21T12:49:06.197Z,14.93
2018-02-21T12:51:33.722Z,15.57
2018-02-21T12:54:01.320Z,16.10
2018-02-21T12:56:28.833Z,16.70
2018-02-21T12:58:56.806Z,15.33
2018-02-21T13:01:24.334Z,16.17
2018-02-21T13:03:51.894Z,16.70
2018-02-21T13:06:19.426Z,15.83
2018-02-21T13:08:46.954Z,14.67
2018-02-21T13:11:15.609Z,15.10
2018-02-21T13:13:43.157Z,16.50
2018-02-21T13:16:10.781Z,15.00
2018-02-21T13:18:38.308Z,14.40
2018-02-21T13:21:05.849Z,15.03
2018-02-21T13:23:33.486Z,14.07
2018-02-21T13:26:01.044Z,14.53
2018-02-21T13:28:28.620Z,13.50
2018-02-21T13:30:56.172Z,15.37
2018-02-21T13:33:23.706Z,14.63
2018-02-21T13:35:51.346Z,14.63
2018-02-21T13:38:18.908Z,14.47
2018-02-21T13:40:46.802Z,14.00
2018-02-21T13:43:14.638Z,14.10
2018-02-21T13:45:42.190Z,14.30
2018-02-21T13:48:09.704Z,14.77
2018-02-21T13:50:38.670Z,14.30
2018-02-21T13:53:06.198Z,14.83
2018-02-21T13:55:33.756Z,13.10
2018-02-21T13:58:01.317Z,14.50
2018-02-21T14:00:28.917Z,13.53
2018-02-21T14:02:56.906Z,14.30
2018-02-21T14:05:24.567Z,13.27
2018-02-21T14:07:52.120Z,14.00
2018-02-21T14:10:19.686Z,13.93
2018-02-21T14:12:47.233Z,12.77
2018-02-21T14:15:14.801Z,13.20
2018-02-21T14:17:42.338Z,13.50
2018-02-21T14:20:09.861Z,13.90
2018-02-21T14:22:37.470Z,14.10
2018-02-21T14:25:05.025Z,13.70
2018-02-21T14:27:32.989Z,14.10
2018-02-21T14:30:00.531Z,13.63
2018-02-21T14:32:28.064Z,14.10
2018-02-21T14:34:55.683Z,14.57
2018-02-21T14:37:23.208Z,13.77
2018-02-21T14:39:50.750Z,13.77
2018-02-21T14:42:18.261Z,14.77
2018-02-21T14:44:45.869Z,13.50
2018-02-21T14:47:13.521Z,13.83
2018-02-21T14:49:41.343Z,13.67
2018-02-21T14:52:08.898Z,13.50
2018-02-21T14:54:36.457Z,13.50
2018-02-21T14:57:04.232Z,13.77
2018-02-21T14:59:31.779Z,13.70
2018-02-21T15:01:59.317Z,13.80
2018-02-21T15:04:26.845Z,13.90
2018-02-21T15:06:54.395Z,13.73
2018-02-21T15:09:22.232Z,14.40
2018-02-21T15:11:49.792Z,13.40
2018-02-21T15:14:17.329Z,13.70
2018-02-21T15:16:44.894Z,13.53
2018-02-21T15:19:12.410Z,14.70
2018-02-21T15:21:39.961Z,13.13
2018-02-21T15:24:07.485Z,14.10
2018-02-21T15:26:35.076Z,13.33
2018-02-21T15:29:02.610Z,15.23
2018-02-21T15:31:30.918Z,14.90
2018-02-21T15:33:58.448Z,14.63
2018-02-21T15:36:25.982Z,14.77
2018-02-21T15:38:53.582Z,16.30
2018-02-21T15:41:21.161Z,15.20
2018-02-21T15:43:48.663Z,14.90
2018-02-21T15:46:16.200Z,15.90
2018-02-21T15:48:43.785Z,15.10
2018-02-21T15:51:11.337Z,16.10
2018-02-21T15:53:38.859Z,14.97
2018-02-21T15:56:06.631Z,15.60
2018-02-21T15:58:34.197Z,16.30
2018-02-21T16:01:01.793Z,15.63
2018-02-21T16:03:29.343Z,15.57
2018-02-21T16:05:56.925Z,15.70
2018-02-21T16:08:24.489Z,15.47
2018-02-21T16:10:52.125Z,15.40
2018-02-21T16:13:19.656Z,15.00
2018-02-21T16:15:47.215Z,15.70
2018-02-21T16:18:14.774Z,15.40
2018-02-21T16:20:42.305Z,15.50
2018-02-21T16:23:10.184Z,18.23
2018-02-21T16:25:37.722Z,15.20
2018-02-21T16:28:05.306Z,17.27
2018-02-21T16:30:32.830Z,15.40
2018-02-21T16:33:00.367Z,16.57
2018-02-21T16:35:27.952Z,15.07
2018-02-21T16:37:55.523Z,16.33
2018-02-21T16:40:23.340Z,15.67
2018-02-21T16:42:51.145Z,15.20
2018-02-21T16:45:18.730Z,15.70
2018-02-21T16:47:46.317Z,14.90
2018-02-21T16:50:13.851Z,14.20
2018-02-21T16:52:41.453Z,15.40
2018-02-21T16:55:08.983Z,14.27
2018-02-21T16:57:36.564Z,14.83
2018-02-21T17:00:04.106Z,14.87
2018-02-21T17:02:31.686Z,14.83
2018-02-21T17:04:59.226Z,13.80
2018-02-21T17:07:26.818Z,14.47
2018-02-21T17:09:54.371Z,14.90
2018-02-21T17:12:22.218Z,13.63
2018-02-21T17:14:49.797Z,14.80
2018-02-21T17:17:17.526Z,15.00
2018-02-21T17:19:45.083Z,14.50
2018-02-21T17:22:12.659Z,15.13
2018-02-21T17:24:40.194Z,14.40
2018-02-21T17:27:07.839Z,14.40
2018-02-21T17:29:35.388Z,14.67
2018-02-21T17:32:03.126Z,15.07
2018-02-21T17:34:31.116Z,13.97
2018-02-21T17:36:58.813Z,14.77
2018-02-21T17:39:26.389Z,15.10
2018-02-21T17:41:54.016Z,15.23
2018-02-21T17:44:21.558Z,15.20
2018-02-21T17:46:49.395Z,15.73
2018-02-21T17:49:16.983Z,15.30
2018-02-21T17:51:44.589Z,15.77
2018-02-21T17:54:12.267Z,17.00
2018-02-21T17:56:40.190Z,15.70
2018-02-21T17:59:08.021Z,15.03
2018-02-21T18:01:35.558Z,15.57
2018-02-21T18:04:03.389Z,15.77
2018-02-21T18:06:31.136Z,17.10
2018-02-21T18:08:58.772Z,17.30
2018-02-21T18:11:26.523Z,17.73
2018-02-21T18:13:54.115Z,16.73
2018-02-21T18:16:21.863Z,17.17
2018-02-21T18:18:49.607Z,16.10
2018-02-21T18:21:22.876Z,16.83
2018-02-21T18:23:50.430Z,16.70
2018-02-21T18:26:18.260Z,17.17
2018-02-21T18:28:45.846Z,15.73
2018-02-21T18:31:13.748Z,16.60
2018-02-21T18:33:41.290Z,16.20
2018-02-21T18:36:08.908Z,17.03
2018-02-21T18:38:36.411Z,16.80
2018-02-21T18:41:03.919Z,17.43
2018-02-21T18:43:31.491Z,16.80
2018-02-21T18:45:59.171Z,17.23
2018-02-21T18:48:26.755Z,17.47
2018-02-21T18:50:54.593Z,16.83
2018-02-21T18:53:22.141Z,17.23
2018-02-21T18:55:49.690Z,16.63
2018-02-21T18:58:17.468Z,17.50
2018-02-21T19:00:45.027Z,16.93
2018-02-21T19:03:12.602Z,17.93
2018-02-21T19:05:40.455Z,17.40
2018-02-21T19:08:07.970Z,17.40
2018-02-21T19:10:35.490Z,18.23
2018-02-21T19:13:03.049Z,16.90
2018-02-21T19:15:30.608Z,18.40
2018-02-21T19:17:58.167Z,16.97
2018-02-21T19:20:25.753Z,17.80
2018-02-21T19:22:53.877Z,16.87
2018-02-21T19:25:21.429Z,18.20
2018-02-21T19:27:48.967Z,17.40
2018-02-21T19:30:16.538Z,17.60
2018-02-21T19:32:44.104Z,17.67
2018-02-21T19:35:11.728Z,19.60
2018-02-21T19:37:39.299Z,18.57
2018-02-21T19:40:06.885Z,19.00
2018-02-21T19:42:34.480Z,18.63
2018-02-21T19:45:02.019Z,17.63
2018-02-21T19:47:29.625Z,18.40
2018-02-21T19:49:57.156Z,20.10
2018-02-21T19:52:24.702Z,18.60
2018-02-21T19:54:52.266Z,20.20
2018-02-21T19:57:19.799Z,19.90
2018-02-21T19:59:47.358Z,19.23
2018-02-21T20:02:14.948Z,18.20
2018-02-21T20:04:42.577Z,20.70
2018-02-21T20:07:10.221Z,17.63
2018-02-21T20:09:38.178Z,16.93
2018-02-21T20:12:05.744Z,16.87
2018-02-21T20:14:33.878Z,15.17
2018-02-21T20:17:02.234Z,16.73
2018-02-21T20:19:30.616Z,16.23
2018-02-21T20:21:58.203Z,16.90
2018-02-21T20:24:25.782Z,15.50
2018-02-21T20:26:53.318Z,15.63
2018-02-21T20:29:20.869Z,15.70
2018-02-21T20:31:48.396Z,15.00
2018-02-21T20:34:15.950Z,15.50
2018-02-21T20:36:43.486Z,15.00
2018-02-21T20:39:11.042Z,15.57
2018-02-21T20:41:38.606Z,14.43
2018-02-21T20:44:06.174Z,14.50
2018-02-21T20:46:33.723Z,14.93
2018-02-21T20:49:01.308Z,14.97
2018-02-21T20:51:28.879Z,14.10
2018-02-21T20:53:56.405Z,14.67
2018-02-21T20:56:23.941Z,14.10
2018-02-21T20:58:51.549Z,14.50
2018-02-21T21:01:19.096Z,14.27
2018-02-21T21:03:46.857Z,13.90
2018-02-21T21:06:14.620Z,14.10
2018-02-21T21:08:42.196Z,14.60
2018-02-21T21:11:09.876Z,14.40
2018-02-21T21:13:39.462Z,15.03
2018-02-21T21:16:07.063Z,14.77
2018-02-21T21:18:34.610Z,15.30
2018-02-21T21:21:02.729Z,14.80
2018-02-21T21:23:34.438Z,14.93
2018-02-21T21:26:02.887Z,14.87
2018-02-21T21:28:30.858Z,14.80
2018-02-21T21:30:58.431Z,14.83
2018-02-21T21:33:25.977Z,14.60
2018-02-21T21:35:53.880Z,14.37
2018-02-21T21:38:21.511Z,16.00
2018-02-21T21:40:49.031Z,14.70
2018-02-21T21:43:16.558Z,14.37
2018-02-21T21:45:44.164Z,14.40
2018-02-21T21:48:11.978Z,14.20
2018-02-21T21:50:39.922Z,15.00
2018-02-21T21:53:07.458Z,15.10
2018-02-21T21:55:35.027Z,14.67
2018-02-21T21:58:02.621Z,15.23
2018-02-21T22:00:30.184Z,15.37
2018-02-21T22:02:57.810Z,15.20
2018-02-21T22:05:25.392Z,14.10
2018-02-21T22:07:52.984Z,15.80
2018-02-21T22:10:20.505Z,15.23
2018-02-21T22:12:48.029Z,14.90
2018-02-21T22:15:15.787Z,15.23
2018-02-21T22:17:43.442Z,16.43
2018-02-21T22:20:11.083Z,15.17
2018-02-21T22:22:38.652Z,15.80
2018-02-21T22:25:06.511Z,15.37
2018-02-21T22:27:34.059Z,16.20
2018-02-21T22:30:01.571Z,15.03
2018-02-21T22:32:29.386Z,16.03
2018-02-21T22:34:57.271Z,15.17
2018-02-21T22:37:24.861Z,16.90
2018-02-21T22:39:52.423Z,16.10
2018-02-21T22:42:19.964Z,16.20
2018-02-21T22:44:49.212Z,16.03
2018-02-21T22:47:17.072Z,16.73
2018-02-21T22:49:44.678Z,16.40
2018-02-21T22:52:12.242Z,16.43
2018-02-21T22:54:40.653Z,16.57
2018-02-21T22:57:08.705Z,16.27
2018-02-21T22:59:37.800Z,17.53
2018-02-21T23:02:05.370Z,15.83
2018-02-21T23:04:33.052Z,16.27
2018-02-21T23:07:00.629Z,17.20
2018-02-21T23:09:28.741Z,16.07
2018-02-21T23:11:56.271Z,16.63
2018-02-21T23:14:24.992Z,16.27
2018-02-21T23:16:52.522Z,16.10
2018-02-21T23:19:20.117Z,16.77
2018-02-21T23:21:47.761Z,18.37
2018-02-21T23:24:15.306Z,17.40
2018-02-21T23:26:42.896Z,16.97
2018-02-21T23:29:10.538Z,16.40
2018-02-21T23:31:38.079Z,17.60
2018-02-21T23:34:05.727Z,16.27
2018-02-21T23:36:33.260Z,16.40
2018-02-21T23:39:00.876Z,16.73
2018-02-21T23:41:28.569Z,18.17
2018-02-21T23:43:56.197Z,17.67
2018-02-21T23:46:23.738Z,17.53
2018-02-21T23:48:51.255Z,17.67
2018-02-21T23:51:18.868Z,16.90
2018-02-21T23:53:46.438Z,17.43
2018-02-21T23:56:14.222Z,17.80
2018-02-21T23:58:41.743Z,16.97
